createdAt,value
2023-06-21T00:01:43.608Z,62.44
2023-06-21T00:04:10.012Z,63.03
2023-06-21T00:06:36.422Z,63.51
2023-06-21T00:09:02.730Z,63.01
2023-06-21T00:11:29.063Z,62.63
2023-06-21T00:13:55.382Z,62.95
2023-06-21T00:16:21.710Z,62.95
2023-06-21T00:18:48.016Z,62.67
2023-06-21T00:21:14.320Z,63.07
2023-06-21T00:23:40.631Z,62.31
2023-06-21T00:26:06.956Z,62.58
2023-06-21T00:28:33.250Z,62.69
2023-06-21T00:30:59.593Z,63.18
2023-06-21T00:33:25.931Z,62.93
2023-06-21T00:35:52.240Z,62.84
2023-06-21T00:38:18.556Z,62.87
2023-06-21T00:40:44.879Z,63.86
2023-06-21T00:43:11.182Z,63.22
2023-06-21T00:45:37.484Z,62.66
2023-06-21T00:48:03.890Z,62.24
2023-06-21T00:50:30.230Z,62.81
2023-06-21T00:52:56.527Z,62.76
2023-06-21T00:55:22.823Z,62.36
2023-06-21T00:57:49.133Z,62.72
2023-06-21T01:00:15.527Z,62.79
2023-06-21T01:02:41.918Z,63.46
2023-06-21T01:05:08.298Z,62.43
2023-06-21T01:07:34.656Z,62.35
2023-06-21T01:10:00.950Z,63.42
2023-06-21T01:12:27.304Z,63.71
2023-06-21T01:14:53.643Z,63.42
2023-06-21T01:17:19.987Z,63.18
2023-06-21T01:19:46.327Z,63.02
2023-06-21T01:22:12.674Z,62.92
2023-06-21T01:24:39.068Z,64.08
2023-06-21T01:27:05.392Z,63.98
2023-06-21T01:29:31.710Z,64.45
2023-06-21T01:31:58.134Z,63.45
2023-06-21T01:34:24.562Z,63.73
2023-06-21T01:36:50.910Z,63.50
2023-06-21T01:39:17.243Z,64.39
2023-06-21T01:41:43.587Z,63.76
2023-06-21T01:44:09.902Z,63.92
2023-06-21T01:46:36.204Z,64.25
2023-06-21T01:49:02.528Z,64.01
2023-06-21T01:51:28.861Z,63.66
2023-06-21T01:53:55.266Z,63.52
2023-06-21T01:56:21.597Z,64.28
2023-06-21T01:58:48.028Z,62.93
2023-06-21T02:01:14.395Z,62.38
2023-06-21T02:03:40.715Z,62.92
2023-06-21T02:06:07.069Z,63.05
2023-06-21T02:08:33.421Z,63.38
2023-06-21T02:10:59.722Z,63.06
2023-06-21T02:13:26.036Z,63.40
2023-06-21T02:15:52.337Z,64.30
2023-06-21T02:18:18.668Z,62.87
2023-06-21T02:20:44.964Z,64.03
2023-06-21T02:23:11.286Z,64.31
2023-06-21T02:25:37.596Z,63.28
2023-06-21T02:28:03.912Z,63.21
2023-06-21T02:30:30.542Z,63.85
2023-06-21T02:32:57.263Z,63.91
2023-06-21T02:35:23.608Z,64.62
2023-06-21T02:37:49.932Z,64.75
2023-06-21T02:40:16.239Z,63.93
2023-06-21T02:42:42.547Z,64.30
2023-06-21T02:45:08.876Z,64.82
2023-06-21T02:47:35.258Z,65.80
2023-06-21T02:50:01.625Z,66.09
2023-06-21T02:52:27.935Z,65.62
2023-06-21T02:54:54.280Z,65.49
2023-06-21T02:57:20.627Z,65.97
2023-06-21T02:59:46.940Z,65.89
2023-06-21T03:02:13.267Z,65.55
2023-06-21T03:04:39.594Z,66.08
2023-06-21T03:07:05.921Z,66.42
2023-06-21T03:09:32.239Z,65.99
2023-06-21T03:11:58.561Z,65.48
2023-06-21T03:14:24.899Z,65.79
2023-06-21T03:16:51.205Z,65.50
2023-06-21T03:19:17.516Z,65.00
2023-06-21T03:21:43.816Z,64.60
2023-06-21T03:24:10.202Z,64.67
2023-06-21T03:26:36.594Z,64.83
2023-06-21T03:29:02.908Z,64.52
2023-06-21T03:31:29.227Z,64.83
2023-06-21T03:33:55.588Z,65.19
2023-06-21T03:36:21.911Z,64.84
2023-06-21T03:38:48.233Z,64.90
2023-06-21T03:41:14.584Z,65.29
2023-06-21T03:43:40.901Z,64.54
2023-06-21T03:46:07.264Z,64.84
2023-06-21T03:48:33.642Z,65.35
2023-06-21T03:50:59.983Z,64.89
2023-06-21T03:53:26.341Z,65.29
2023-06-21T03:55:52.664Z,65.11
2023-06-21T03:58:19.014Z,64.76
2023-06-21T04:00:45.409Z,65.25
2023-06-21T04:03:11.835Z,65.06
2023-06-21T04:05:38.252Z,65.27
2023-06-21T04:08:04.544Z,65.33
2023-06-21T04:10:31.036Z,64.69
2023-06-21T04:12:57.480Z,64.42
2023-06-21T04:15:23.842Z,64.85
2023-06-21T04:17:50.200Z,65.19
2023-06-21T04:20:16.673Z,65.40
2023-06-21T04:22:43.003Z,65.82
2023-06-21T04:25:09.316Z,65.44
2023-06-21T04:27:35.616Z,64.90
2023-06-21T04:30:01.934Z,64.01
2023-06-21T04:32:28.234Z,65.00
2023-06-21T04:34:54.574Z,63.27
2023-06-21T04:37:20.909Z,62.71
2023-06-21T04:39:47.234Z,62.50
2023-06-21T04:42:13.587Z,63.54
2023-06-21T04:44:39.904Z,63.01
2023-06-21T04:47:06.235Z,63.15
2023-06-21T04:49:32.591Z,63.77
2023-06-21T04:51:59.233Z,63.75
2023-06-21T04:54:25.794Z,63.50
2023-06-21T04:56:52.110Z,63.05
2023-06-21T04:59:18.424Z,63.17
2023-06-21T05:01:44.786Z,61.88
2023-06-21T05:04:11.182Z,62.00
2023-06-21T05:06:37.497Z,60.97
2023-06-21T05:09:03.881Z,60.44
2023-06-21T05:11:30.200Z,60.91
2023-06-21T05:13:56.690Z,59.87
2023-06-21T05:16:23.108Z,61.32
2023-06-21T05:18:49.415Z,59.92
2023-06-21T05:21:15.731Z,60.27
2023-06-21T05:23:42.043Z,59.37
2023-06-21T05:26:08.380Z,59.09
2023-06-21T05:28:34.694Z,57.90
2023-06-21T05:31:01.080Z,56.87
2023-06-21T05:33:27.399Z,56.28
2023-06-21T05:35:53.719Z,57.22
2023-06-21T05:38:20.043Z,58.30
2023-06-21T05:40:46.372Z,56.97
2023-06-21T05:43:12.696Z,57.01
2023-06-21T05:45:39.037Z,55.36
2023-06-21T05:48:05.480Z,54.46
2023-06-21T05:50:31.935Z,54.55
2023-06-21T05:52:58.297Z,57.47
2023-06-21T05:55:24.657Z,56.88
2023-06-21T05:57:51.020Z,55.97
2023-06-21T06:00:17.328Z,55.74
2023-06-21T06:02:43.783Z,56.61
2023-06-21T06:05:10.134Z,56.74
2023-06-21T06:10:20.345Z,55.93
2023-06-21T06:12:46.706Z,55.18
2023-06-21T06:15:13.083Z,53.86
2023-06-21T06:17:39.538Z,53.72
2023-06-21T06:20:05.901Z,56.59
2023-06-21T06:22:32.204Z,56.22
2023-06-21T06:24:58.540Z,55.88
2023-06-21T06:27:24.892Z,55.40
2023-06-21T06:29:51.276Z,53.80
2023-06-21T06:32:17.579Z,52.10
2023-06-21T06:34:43.884Z,51.29
2023-06-21T06:37:15.510Z,54.96
2023-06-21T06:39:45.206Z,56.91
2023-06-21T06:42:11.736Z,53.94
2023-06-21T06:44:38.068Z,53.50
2023-06-21T06:47:04.380Z,53.56
2023-06-21T06:49:30.694Z,54.05
2023-06-21T06:51:57.008Z,53.19
2023-06-21T06:56:49.655Z,51.76
2023-06-21T06:59:15.955Z,52.22
2023-06-21T07:01:42.359Z,54.85
2023-06-21T07:04:08.780Z,53.90
2023-06-21T07:06:35.228Z,54.65
2023-06-21T07:09:01.547Z,53.28
2023-06-21T07:11:27.864Z,52.19
2023-06-21T07:13:54.289Z,52.76
2023-06-21T07:16:20.668Z,50.79
2023-06-21T07:18:46.967Z,49.42
2023-06-21T07:21:13.291Z,51.44
2023-06-21T07:23:39.691Z,53.14
2023-06-21T07:26:06.054Z,55.63
2023-06-21T07:28:32.578Z,54.80
2023-06-21T07:30:58.896Z,55.54
2023-06-21T07:33:25.302Z,55.75
2023-06-21T07:35:51.652Z,53.91
2023-06-21T07:38:17.954Z,54.89
2023-06-21T07:40:44.300Z,54.45
2023-06-21T07:43:10.632Z,52.71
2023-06-21T07:45:36.952Z,53.81
2023-06-21T07:48:03.323Z,54.49
2023-06-21T07:50:29.664Z,55.43
2023-06-21T07:52:55.971Z,52.41
2023-06-21T07:55:22.376Z,52.05
2023-06-21T07:57:48.736Z,51.37
2023-06-21T08:00:15.165Z,50.38
2023-06-21T08:02:41.591Z,48.60
2023-06-21T08:05:07.960Z,48.18
2023-06-21T08:07:34.374Z,48.43
2023-06-21T08:10:00.746Z,50.56
2023-06-21T08:12:27.084Z,50.52
2023-06-21T08:14:53.424Z,49.39
2023-06-21T08:17:19.739Z,50.14
2023-06-21T08:19:46.057Z,50.11
2023-06-21T08:22:12.418Z,48.83
2023-06-21T08:24:38.764Z,50.70
2023-06-21T08:27:05.066Z,53.60
2023-06-21T08:29:31.387Z,49.98
2023-06-21T08:31:57.744Z,49.11
2023-06-21T08:34:24.086Z,49.52
2023-06-21T08:36:50.431Z,49.94
2023-06-21T08:39:16.751Z,50.31
2023-06-21T08:41:43.101Z,52.02
2023-06-21T08:44:09.434Z,49.82
2023-06-21T08:46:35.790Z,49.56
2023-06-21T08:49:02.151Z,49.12
2023-06-21T08:51:28.523Z,47.87
2023-06-21T08:53:54.909Z,48.21
2023-06-21T08:56:21.291Z,50.10
2023-06-21T08:58:47.627Z,47.17
2023-06-21T09:01:14.014Z,45.52
2023-06-21T09:03:40.612Z,47.53
2023-06-21T09:06:07.065Z,46.13
2023-06-21T09:08:33.458Z,45.61
2023-06-21T09:10:59.812Z,44.45
2023-06-21T09:13:26.155Z,45.47
2023-06-21T09:15:52.533Z,43.58
2023-06-21T09:18:18.865Z,45.30
2023-06-21T09:20:45.243Z,43.91
2023-06-21T09:23:11.546Z,44.41
2023-06-21T09:25:37.888Z,44.83
2023-06-21T09:28:04.234Z,46.06
2023-06-21T09:30:38.177Z,48.59
2023-06-21T09:33:05.625Z,48.53
2023-06-21T09:35:32.108Z,46.18
2023-06-21T09:37:58.722Z,44.94
2023-06-21T09:40:25.060Z,42.68
2023-06-21T09:42:51.411Z,43.67
2023-06-21T09:45:17.731Z,42.98
2023-06-21T09:47:44.184Z,40.63
2023-06-21T09:50:10.573Z,42.09
2023-06-21T09:52:36.878Z,40.49
2023-06-21T09:55:03.994Z,39.99
2023-06-21T09:57:30.323Z,41.54
2023-06-21T09:59:56.681Z,43.45
2023-06-21T10:02:23.001Z,43.46
2023-06-21T10:04:49.296Z,41.41
2023-06-21T10:07:15.645Z,44.33
2023-06-21T10:09:41.976Z,43.45
2023-06-21T10:12:08.297Z,42.25
2023-06-21T10:14:34.614Z,42.53
2023-06-21T10:17:00.928Z,44.35
2023-06-21T10:19:28.682Z,46.36
2023-06-21T10:21:54.974Z,45.60
2023-06-21T10:24:21.292Z,45.05
2023-06-21T10:26:47.640Z,44.54
2023-06-21T10:29:14.084Z,45.01
2023-06-21T10:31:40.482Z,45.04
2023-06-21T10:34:06.820Z,43.64
2023-06-21T10:36:33.130Z,43.56
2023-06-21T10:38:59.469Z,43.67
2023-06-21T10:41:25.832Z,46.12
2023-06-21T10:43:52.145Z,45.09
2023-06-21T10:46:18.569Z,46.03
2023-06-21T10:48:44.941Z,46.50
2023-06-21T10:51:11.296Z,48.84
2023-06-21T10:53:37.604Z,49.92
2023-06-21T10:56:03.944Z,48.15
2023-06-21T10:58:30.248Z,48.22
2023-06-21T11:00:56.598Z,47.71
2023-06-21T11:03:22.942Z,47.09
2023-06-21T11:05:49.267Z,48.55
2023-06-21T11:08:15.630Z,49.63
2023-06-21T11:10:41.953Z,47.92
2023-06-21T11:13:08.277Z,48.02
2023-06-21T11:15:34.580Z,47.93
2023-06-21T11:18:00.964Z,46.75
2023-06-21T11:20:27.742Z,49.00
2023-06-21T11:22:54.381Z,46.97
2023-06-21T11:25:21.032Z,46.94
2023-06-21T11:27:47.348Z,46.44
2023-06-21T11:30:13.706Z,45.10
2023-06-21T11:32:40.341Z,46.39
2023-06-21T11:35:06.742Z,48.46
2023-06-21T11:37:33.069Z,47.78
2023-06-21T11:39:59.387Z,45.47
2023-06-21T11:42:25.696Z,43.79
2023-06-21T11:44:52.020Z,45.78
2023-06-21T11:47:18.326Z,44.19
2023-06-21T11:49:44.646Z,43.56
2023-06-21T11:52:11.052Z,41.98
2023-06-21T11:54:37.401Z,41.71
2023-06-21T11:57:03.741Z,43.43
2023-06-21T11:59:30.056Z,45.48
2023-06-21T12:01:56.395Z,43.66
2023-06-21T12:04:22.784Z,42.38
2023-06-21T12:06:49.147Z,41.55
2023-06-21T12:09:15.467Z,41.98
2023-06-21T12:11:41.773Z,43.41
2023-06-21T12:14:08.074Z,40.84
2023-06-21T12:16:34.497Z,42.12
2023-06-21T12:19:00.899Z,42.19
2023-06-21T12:21:27.208Z,40.25
2023-06-21T12:23:53.515Z,40.01
2023-06-21T12:26:19.815Z,40.58
2023-06-21T12:28:46.164Z,39.87
2023-06-21T12:31:12.484Z,39.45
2023-06-21T12:33:42.271Z,40.66
2023-06-21T12:36:10.488Z,39.17
2023-06-21T12:38:36.809Z,36.55
2023-06-21T12:41:03.117Z,36.44
2023-06-21T12:43:29.503Z,37.73
2023-06-21T12:45:55.828Z,37.83
2023-06-21T12:48:22.153Z,36.98
2023-06-21T12:50:48.583Z,32.79
2023-06-21T12:53:14.907Z,32.79
2023-06-21T12:55:41.227Z,31.26
2023-06-21T12:58:07.577Z,34.28
2023-06-21T13:00:33.897Z,37.83
2023-06-21T13:03:00.300Z,33.29
2023-06-21T13:05:26.839Z,33.01
2023-06-21T13:07:53.172Z,31.36
2023-06-21T13:10:19.482Z,34.23
2023-06-21T13:12:45.808Z,33.75
2023-06-21T13:15:12.145Z,35.57
2023-06-21T13:17:38.520Z,37.26
2023-06-21T13:20:05.754Z,31.46
2023-06-21T13:22:32.141Z,32.40
2023-06-21T13:24:58.440Z,32.47
2023-06-21T13:27:24.756Z,33.65
2023-06-21T13:29:51.083Z,31.42
2023-06-21T13:32:19.674Z,32.90
2023-06-21T13:34:45.972Z,35.71
2023-06-21T13:37:12.280Z,36.08
2023-06-21T13:39:38.628Z,37.12
2023-06-21T13:42:04.957Z,32.98
2023-06-21T13:44:31.256Z,36.00
2023-06-21T13:46:57.640Z,35.30
2023-06-21T13:49:24.057Z,30.32
2023-06-21T13:51:50.468Z,31.74
2023-06-21T13:54:16.791Z,34.55
2023-06-21T13:56:43.113Z,34.43
2023-06-21T13:59:09.505Z,35.51
2023-06-21T14:01:35.822Z,34.66
2023-06-21T14:04:02.265Z,34.50
2023-06-21T14:06:28.756Z,34.75
2023-06-21T14:08:55.074Z,35.09
2023-06-21T14:11:21.376Z,35.44
2023-06-21T14:13:47.679Z,33.77
2023-06-21T14:16:14.245Z,34.19
2023-06-21T14:18:46.945Z,34.55
2023-06-21T14:21:14.544Z,33.95
2023-06-21T14:23:40.946Z,34.29
2023-06-21T14:26:07.280Z,33.78
2023-06-21T14:28:33.579Z,33.06
2023-06-21T14:30:59.906Z,35.29
2023-06-21T14:33:26.297Z,33.46
2023-06-21T14:35:52.696Z,34.07
2023-06-21T14:38:19.154Z,33.43
2023-06-21T14:40:45.501Z,33.74
2023-06-21T14:43:11.816Z,34.50
2023-06-21T14:45:38.142Z,34.65
2023-06-21T14:48:04.523Z,35.09
2023-06-21T14:50:31.205Z,33.73
2023-06-21T14:52:57.826Z,33.01
2023-06-21T14:55:24.207Z,33.47
2023-06-21T14:57:50.524Z,32.16
2023-06-21T15:00:16.890Z,34.37
2023-06-21T15:02:43.331Z,35.36
2023-06-21T15:05:09.693Z,34.04
2023-06-21T15:07:36.043Z,36.61
2023-06-21T15:10:02.450Z,34.39
2023-06-21T15:12:28.791Z,35.68
2023-06-21T15:14:55.111Z,35.16
2023-06-21T15:17:21.434Z,33.84
2023-06-21T15:19:47.783Z,33.29
2023-06-21T15:22:14.106Z,34.73
2023-06-21T15:24:40.404Z,33.85
2023-06-21T15:27:06.711Z,35.05
2023-06-21T15:29:33.025Z,34.68
2023-06-21T15:31:59.344Z,33.67
2023-06-21T15:34:25.695Z,34.23
2023-06-21T15:36:52.061Z,35.33
2023-06-21T15:39:18.363Z,33.15
2023-06-21T15:41:44.673Z,33.83
2023-06-21T15:44:10.984Z,34.28
2023-06-21T15:46:37.422Z,34.01
2023-06-21T15:49:03.824Z,34.71
2023-06-21T15:51:30.159Z,35.29
2023-06-21T15:53:56.577Z,34.86
2023-06-21T15:56:23.169Z,35.97
2023-06-21T15:58:49.492Z,36.45
2023-06-21T16:01:15.845Z,37.54
2023-06-21T16:03:42.419Z,37.24
2023-06-21T16:06:08.818Z,37.55
2023-06-21T16:08:35.154Z,38.02
2023-06-21T16:11:01.460Z,39.13
2023-06-21T16:13:28.629Z,37.01
2023-06-21T16:15:55.742Z,37.55
2023-06-21T16:18:22.097Z,37.40
2023-06-21T16:20:48.438Z,37.42
2023-06-21T16:23:14.744Z,35.42
2023-06-21T16:25:41.054Z,35.57
2023-06-21T16:28:07.394Z,36.46
2023-06-21T16:30:33.762Z,37.21
2023-06-21T16:33:00.127Z,37.55
2023-06-21T16:35:27.014Z,38.15
2023-06-21T16:37:53.643Z,37.77
2023-06-21T16:40:19.965Z,38.51
2023-06-21T16:42:46.373Z,37.44
2023-06-21T16:45:12.691Z,37.56
2023-06-21T16:47:39.067Z,38.37
2023-06-21T16:50:05.391Z,38.32
2023-06-21T16:52:31.747Z,38.46
2023-06-21T16:54:58.065Z,36.57
2023-06-21T16:57:24.421Z,36.60
2023-06-21T16:59:50.832Z,37.66
2023-06-21T17:02:17.152Z,37.18
2023-06-21T17:04:43.848Z,37.54
2023-06-21T17:07:10.175Z,37.65
2023-06-21T17:09:36.517Z,37.29
2023-06-21T17:12:02.880Z,37.96
2023-06-21T17:14:29.197Z,38.10
2023-06-21T17:16:55.533Z,37.66
2023-06-21T17:19:21.836Z,37.76
2023-06-21T17:21:48.193Z,37.91
2023-06-21T17:24:14.622Z,39.00
2023-06-21T17:26:40.923Z,38.83
2023-06-21T17:29:07.231Z,36.85
2023-06-21T17:31:33.633Z,38.95
2023-06-21T17:34:00.090Z,37.17
2023-06-21T17:36:26.494Z,38.43
2023-06-21T17:38:52.790Z,38.83
2023-06-21T17:41:19.111Z,38.45
2023-06-21T17:43:45.425Z,38.30
2023-06-21T17:46:11.758Z,38.00
2023-06-21T17:48:38.232Z,38.19
2023-06-21T17:51:04.598Z,39.31
2023-06-21T17:53:30.911Z,39.17
2023-06-21T17:55:57.229Z,41.19
2023-06-21T17:58:23.583Z,40.81
2023-06-21T18:00:49.958Z,40.13
2023-06-21T18:03:16.377Z,41.24
2023-06-21T18:05:42.756Z,42.15
2023-06-21T18:08:09.048Z,43.11
2023-06-21T18:10:35.342Z,47.58
2023-06-21T18:13:01.761Z,48.98
2023-06-21T18:15:28.371Z,48.05
2023-06-21T18:17:54.899Z,51.43
2023-06-21T18:20:21.244Z,52.21
2023-06-21T18:22:47.551Z,51.51
2023-06-21T18:25:13.859Z,50.90
2023-06-21T18:27:40.179Z,51.85
2023-06-21T18:30:09.728Z,52.98
2023-06-21T18:32:36.678Z,52.58
2023-06-21T18:35:03.052Z,52.80
2023-06-21T18:37:29.441Z,52.01
2023-06-21T18:39:55.805Z,51.21
2023-06-21T18:42:22.202Z,50.72
2023-06-21T18:44:48.924Z,50.15
2023-06-21T18:47:15.280Z,50.64
2023-06-21T18:49:41.623Z,50.31
2023-06-21T18:52:07.919Z,50.30
2023-06-21T18:54:34.231Z,53.04
2023-06-21T18:57:00.546Z,52.35
2023-06-21T18:59:26.861Z,52.86
2023-06-21T19:01:53.225Z,52.96
2023-06-21T19:04:19.672Z,52.52
2023-06-21T19:06:46.085Z,53.65
2023-06-21T19:09:12.447Z,53.48
2023-06-21T19:11:38.752Z,56.81
2023-06-21T19:14:05.142Z,58.03
2023-06-21T19:16:31.462Z,58.67
2023-06-21T19:18:57.813Z,58.33
2023-06-21T19:21:24.124Z,56.96
2023-06-21T19:23:50.474Z,57.31
2023-06-21T19:26:16.775Z,57.04
2023-06-21T19:28:43.083Z,56.93
2023-06-21T19:31:09.427Z,58.02
2023-06-21T19:33:35.794Z,57.77
2023-06-21T19:36:02.169Z,57.80
2023-06-21T19:38:28.483Z,56.51
2023-06-21T19:40:55.211Z,55.34
2023-06-21T19:43:21.516Z,56.68
2023-06-21T19:45:47.869Z,57.32
2023-06-21T19:48:14.236Z,56.94
2023-06-21T19:50:40.562Z,56.20
2023-06-21T19:53:06.878Z,55.70
2023-06-21T19:55:33.196Z,55.05
2023-06-21T19:57:59.519Z,55.31
2023-06-21T20:00:26.137Z,55.91
2023-06-21T20:02:52.823Z,55.14
2023-06-21T20:05:19.213Z,54.10
2023-06-21T20:07:45.506Z,53.87
2023-06-21T20:10:11.820Z,54.13
2023-06-21T20:12:38.155Z,54.33
2023-06-21T20:15:04.482Z,53.91
2023-06-21T20:17:49.435Z,53.67
2023-06-21T20:20:34.274Z,53.18
2023-06-21T20:23:00.593Z,52.45
2023-06-21T20:25:26.917Z,53.22
2023-06-21T20:27:53.227Z,54.08
2023-06-21T20:30:19.605Z,54.24
2023-06-21T20:32:45.960Z,53.90
2023-06-21T20:35:12.657Z,53.79
2023-06-21T20:37:39.004Z,52.70
2023-06-21T20:40:05.319Z,52.01
2023-06-21T20:42:31.717Z,52.07
2023-06-21T20:44:58.013Z,52.98
2023-06-21T20:47:24.418Z,51.89
2023-06-21T20:49:50.844Z,52.15
2023-06-21T20:52:17.143Z,52.81
2023-06-21T20:54:43.460Z,53.57
2023-06-21T20:57:09.777Z,52.82
2023-06-21T20:59:36.089Z,52.09
2023-06-21T21:02:02.391Z,52.23
2023-06-21T21:04:28.732Z,52.82
2023-06-21T21:06:55.115Z,53.30
2023-06-21T21:09:21.456Z,53.32
2023-06-21T21:11:47.759Z,53.88
2023-06-21T21:14:14.053Z,53.63
2023-06-21T21:16:40.347Z,54.05
2023-06-21T21:19:06.668Z,54.22
2023-06-21T21:21:32.992Z,54.07
2023-06-21T21:23:59.321Z,53.81
2023-06-21T21:26:25.654Z,52.03
2023-06-21T21:28:52.009Z,51.53
2023-06-21T21:31:18.384Z,51.13
2023-06-21T21:33:44.719Z,51.58
2023-06-21T21:36:11.079Z,52.57
2023-06-21T21:38:37.416Z,52.79
2023-06-21T21:41:03.724Z,53.08
2023-06-21T21:43:30.044Z,51.69
2023-06-21T21:45:56.328Z,50.61
2023-06-21T21:48:22.653Z,50.95
2023-06-21T21:50:49.058Z,50.78
2023-06-21T21:53:15.470Z,50.96
2023-06-21T21:55:41.803Z,52.28
2023-06-21T21:58:09.180Z,52.37
2023-06-21T22:00:35.500Z,52.59
2023-06-21T22:03:02.078Z,53.03
2023-06-21T22:05:28.547Z,53.67
2023-06-21T22:07:54.845Z,53.29
2023-06-21T22:10:35.880Z,54.11
2023-06-21T22:13:03.691Z,53.83
2023-06-21T22:15:30.012Z,53.58
2023-06-21T22:17:56.403Z,52.85
2023-06-21T22:20:22.766Z,52.18
2023-06-21T22:22:49.081Z,51.40
2023-06-21T22:25:15.421Z,51.93
2023-06-21T22:27:41.759Z,52.66
2023-06-21T22:30:08.102Z,53.21
2023-06-21T22:32:34.464Z,53.11
2023-06-21T22:35:00.789Z,53.83
2023-06-21T22:37:27.111Z,54.24
2023-06-21T22:39:53.418Z,54.25
2023-06-21T22:42:19.726Z,54.24
2023-06-21T22:44:46.044Z,54.32
2023-06-21T22:47:12.336Z,54.87
2023-06-21T22:49:38.662Z,53.86
2023-06-21T22:52:04.966Z,54.39
2023-06-21T22:54:31.289Z,53.30
2023-06-21T22:56:57.623Z,52.45
2023-06-21T22:59:23.946Z,53.13
2023-06-21T23:01:50.300Z,53.38
2023-06-21T23:04:16.820Z,53.43
2023-06-21T23:06:43.403Z,54.09
2023-06-21T23:09:09.711Z,53.28
2023-06-21T23:11:36.024Z,53.07
2023-06-21T23:14:02.343Z,53.82
2023-06-21T23:16:28.659Z,54.32
2023-06-21T23:18:55.190Z,53.37
2023-06-21T23:21:21.630Z,52.52
2023-06-21T23:23:47.927Z,52.42
2023-06-21T23:26:14.268Z,52.36
2023-06-21T23:28:40.612Z,52.65
2023-06-21T23:31:06.997Z,52.29
2023-06-21T23:33:33.406Z,53.53
2023-06-21T23:35:59.710Z,53.45
2023-06-21T23:38:26.028Z,54.06
2023-06-21T23:40:52.348Z,53.78
2023-06-21T23:43:18.667Z,53.96
2023-06-21T23:45:44.999Z,54.55
2023-06-21T23:48:11.294Z,54.71
2023-06-21T23:50:37.634Z,54.39
2023-06-21T23:53:03.966Z,53.88
2023-06-21T23:55:30.269Z,52.96
2023-06-21T23:57:56.587Z,52.97
